createdAt,value
2023-01-01T00:00:40.825Z,52.78
2023-01-01T00:03:07.940Z,44.17
2023-01-01T00:05:34.842Z,44.35
2023-01-01T00:08:05.271Z,42.85
2023-01-01T00:10:32.931Z,34.22
2023-01-01T00:13:00.445Z,30.70
2023-01-01T00:15:28.451Z,43.38
2023-01-01T00:17:55.782Z,33.88
2023-01-01T00:20:22.865Z,33.75
2023-01-01T00:22:55.085Z,37.45
2023-01-01T00:25:23.298Z,28.92
2023-01-01T00:27:50.453Z,29.05
2023-01-01T00:30:17.574Z,31.02
2023-01-01T00:32:55.757Z,30.85
2023-01-01T00:35:24.612Z,25.10
2023-01-01T00:37:51.626Z,29.48
2023-01-01T00:40:18.858Z,29.05
2023-01-01T00:42:45.873Z,23.83
2023-01-01T00:45:18.732Z,23.88
2023-01-01T00:47:48.444Z,21.00
2023-01-01T00:50:15.535Z,21.75
2023-01-01T00:52:42.453Z,13.15
2023-01-01T00:55:10.251Z,23.20
2023-01-01T00:57:37.152Z,18.67
2023-01-01T01:00:05.455Z,18.83
2023-01-01T01:02:32.638Z,20.48
2023-01-01T01:05:04.773Z,20.65
2023-01-01T01:07:38.943Z,19.52
2023-01-01T01:10:06.743Z,19.00
2023-01-01T01:12:35.226Z,20.00
2023-01-01T01:15:02.583Z,10.63
2023-01-01T01:17:29.828Z,11.85
2023-01-01T01:19:56.894Z,13.30
2023-01-01T01:22:28.380Z,10.60
2023-01-01T01:24:56.757Z,15.77
2023-01-01T01:27:24.176Z,14.38
2023-01-01T01:29:51.110Z,13.70
2023-01-01T01:32:18.056Z,10.18
2023-01-01T01:34:45.297Z,12.25
2023-01-01T01:37:12.642Z,11.32
2023-01-01T01:39:40.157Z,10.23
2023-01-01T01:42:07.291Z,11.82
2023-01-01T01:44:51.616Z,17.65
2023-01-01T01:47:24.606Z,10.13
2023-01-01T01:50:01.437Z,11.15
2023-01-01T01:52:29.046Z,10.63
2023-01-01T01:54:57.179Z,8.82
2023-01-01T01:57:24.743Z,10.50
2023-01-01T01:59:55.219Z,6.30
2023-01-01T02:02:53.455Z,7.72
2023-01-01T02:05:21.859Z,7.50
2023-01-01T02:07:49.671Z,7.32
2023-01-01T02:10:16.641Z,8.38
2023-01-01T02:12:43.665Z,8.48
2023-01-01T02:15:11.010Z,8.73
2023-01-01T02:18:07.375Z,14.85
2023-01-01T02:20:51.016Z,8.25
2023-01-01T02:23:46.260Z,9.25
2023-01-01T02:26:38.776Z,7.00
2023-01-01T02:29:24.863Z,6.20
2023-01-01T02:32:03.460Z,6.28
2023-01-01T02:34:38.649Z,6.20
2023-01-01T02:37:08.725Z,6.43
2023-01-01T02:39:42.072Z,10.13
2023-01-01T02:42:09.080Z,6.93
2023-01-01T02:44:39.216Z,7.60
2023-01-01T02:47:11.623Z,5.70
2023-01-01T02:49:46.402Z,9.32
2023-01-01T02:52:34.539Z,3.95
2023-01-01T02:55:13.056Z,6.95
2023-01-01T02:57:45.543Z,6.13
2023-01-01T03:00:28.295Z,3.60
2023-01-01T03:03:19.336Z,3.67
2023-01-01T03:06:15.516Z,5.93
2023-01-01T03:08:42.403Z,4.45
2023-01-01T03:11:13.313Z,7.07
2023-01-01T03:13:48.988Z,4.75
2023-01-01T03:16:19.201Z,5.90
2023-01-01T03:19:11.859Z,6.05
2023-01-01T03:21:59.650Z,4.75
2023-01-01T03:24:33.560Z,7.93
2023-01-01T03:27:29.740Z,5.22
2023-01-01T03:29:59.829Z,5.57
2023-01-01T03:33:07.904Z,5.80
2023-01-01T03:35:47.181Z,4.30
2023-01-01T03:38:27.616Z,5.40
2023-01-01T03:41:00.376Z,2.92
2023-01-01T03:43:49.638Z,3.83
2023-01-01T03:46:21.331Z,6.13
2023-01-01T03:49:03.112Z,4.32
2023-01-01T03:51:46.080Z,5.00
2023-01-01T03:54:33.244Z,6.38
2023-01-01T03:57:28.304Z,3.60
2023-01-01T04:00:19.584Z,3.35
2023-01-01T04:02:52.739Z,3.22
2023-01-01T04:05:21.200Z,6.18
2023-01-01T04:10:18.854Z,3.67
2023-01-01T04:12:55.196Z,5.70
2023-01-01T04:15:25.795Z,6.15
2023-01-01T04:17:53.665Z,3.08
2023-01-01T04:20:21.461Z,4.28
2023-01-01T04:22:48.401Z,4.15
2023-01-01T04:25:17.443Z,2.97
2023-01-01T04:27:44.573Z,2.83
2023-01-01T04:30:14.260Z,4.50
2023-01-01T04:32:41.982Z,3.53
2023-01-01T04:35:12.743Z,4.50
2023-01-01T04:37:40.916Z,4.40
2023-01-01T04:40:09.076Z,4.88
2023-01-01T04:42:36.229Z,5.85
2023-01-01T04:45:04.028Z,2.55
2023-01-01T04:47:31.040Z,4.03
2023-01-01T04:49:58.045Z,4.18
2023-01-01T04:52:25.063Z,3.35
2023-01-01T04:54:51.990Z,7.45
2023-01-01T04:57:18.985Z,2.75
2023-01-01T04:59:45.928Z,3.15
2023-01-01T05:02:12.921Z,4.25
2023-01-01T05:04:39.993Z,3.08
2023-01-01T05:07:07.057Z,1.85
2023-01-01T05:09:33.987Z,3.17
2023-01-01T05:12:00.896Z,5.20
2023-01-01T05:14:27.798Z,2.88
2023-01-01T05:16:54.795Z,3.58
2023-01-01T05:19:21.772Z,3.13
2023-01-01T05:21:48.699Z,5.30
2023-01-01T05:24:15.918Z,1.92
2023-01-01T05:26:44.719Z,4.22
2023-01-01T05:29:16.651Z,3.42
2023-01-01T05:31:45.215Z,3.00
2023-01-01T05:34:12.819Z,4.95
2023-01-01T05:36:40.171Z,4.97
2023-01-01T05:39:08.370Z,5.70
2023-01-01T05:41:36.688Z,8.43
2023-01-01T05:44:06.385Z,3.97
2023-01-01T05:46:33.561Z,3.00
2023-01-01T05:49:00.865Z,4.30
2023-01-01T05:51:29.838Z,5.80
2023-01-01T05:53:58.312Z,3.72
2023-01-01T05:56:26.266Z,3.47
2023-01-01T05:58:53.512Z,2.28
2023-01-01T06:01:23.269Z,6.45
2023-01-01T06:03:50.945Z,3.78
2023-01-01T06:06:20.915Z,6.00
2023-01-01T06:08:53.133Z,5.78
2023-01-01T06:11:20.444Z,2.42
2023-01-01T06:13:47.626Z,3.85
2023-01-01T06:16:14.877Z,3.65
2023-01-01T06:18:42.199Z,4.28
2023-01-01T06:21:16.343Z,7.25
2023-01-01T06:23:44.174Z,3.97
2023-01-01T06:26:16.414Z,8.05
2023-01-01T06:28:44.841Z,3.75
2023-01-01T06:31:14.207Z,5.35
2023-01-01T06:33:41.948Z,3.50
2023-01-01T06:36:11.712Z,7.93
2023-01-01T06:38:42.795Z,5.90
2023-01-01T06:41:15.118Z,6.50
2023-01-01T06:43:42.066Z,4.38
2023-01-01T06:46:19.680Z,5.32
2023-01-01T06:48:48.566Z,4.10
2023-01-01T06:51:17.811Z,6.10
2023-01-01T06:53:45.299Z,2.55
2023-01-01T06:56:12.567Z,5.40
2023-01-01T06:58:39.801Z,5.50
2023-01-01T07:01:11.399Z,5.70
2023-01-01T07:03:39.626Z,5.00
2023-01-01T07:06:07.871Z,5.03
2023-01-01T07:08:35.701Z,5.30
2023-01-01T07:11:02.944Z,8.02
2023-01-01T07:13:31.436Z,8.15
2023-01-01T07:16:00.234Z,3.30
2023-01-01T07:18:27.390Z,5.53
2023-01-01T07:20:57.581Z,4.93
2023-01-01T07:23:25.760Z,3.13
2023-01-01T07:25:54.104Z,8.85
2023-01-01T07:28:22.303Z,3.13
2023-01-01T07:30:49.533Z,6.22
2023-01-01T07:33:19.393Z,5.65
2023-01-01T07:35:47.318Z,8.93
2023-01-01T07:38:15.669Z,3.28
2023-01-01T07:40:43.229Z,3.28
2023-01-01T07:43:12.438Z,5.72
2023-01-01T07:45:40.027Z,3.45
2023-01-01T07:48:09.581Z,4.50
2023-01-01T07:50:38.252Z,4.20
2023-01-01T07:53:05.267Z,6.57
2023-01-01T07:55:34.101Z,2.85
2023-01-01T07:58:01.410Z,3.10
2023-01-01T08:00:28.995Z,4.68
2023-01-01T08:02:56.205Z,3.45
2023-01-01T08:05:26.917Z,4.85
2023-01-01T08:07:54.667Z,4.10
2023-01-01T08:10:21.931Z,3.30
2023-01-01T08:12:49.452Z,6.75
2023-01-01T08:15:17.767Z,2.38
2023-01-01T08:17:47.244Z,2.35
2023-01-01T08:20:15.706Z,2.90
2023-01-01T08:22:42.667Z,2.80
2023-01-01T08:25:09.859Z,5.63
2023-01-01T08:27:38.195Z,5.50
2023-01-01T08:30:05.733Z,6.68
2023-01-01T08:32:32.765Z,3.70
2023-01-01T08:35:00.603Z,4.55
2023-01-01T08:37:28.058Z,6.15
2023-01-01T08:39:55.100Z,3.70
2023-01-01T08:42:22.145Z,5.15
2023-01-01T08:44:49.446Z,3.78
2023-01-01T08:48:24.369Z,3.58
2023-01-01T08:50:57.651Z,6.43
2023-01-01T08:53:25.253Z,4.35
2023-01-01T08:56:04.059Z,4.88
2023-01-01T08:58:36.453Z,7.57
2023-01-01T09:01:04.228Z,5.13
2023-01-01T09:03:31.274Z,5.10
2023-01-01T09:05:58.649Z,4.75
2023-01-01T09:08:26.115Z,3.00
2023-01-01T09:10:53.979Z,3.90
2023-01-01T09:13:22.070Z,4.97
2023-01-01T09:15:49.084Z,3.47
2023-01-01T09:18:16.093Z,4.97
2023-01-01T09:20:43.027Z,4.63
2023-01-01T09:23:11.921Z,5.32
2023-01-01T09:25:38.983Z,5.57
2023-01-01T09:28:12.503Z,4.22
2023-01-01T09:30:39.539Z,4.82
2023-01-01T09:33:06.481Z,5.55
2023-01-01T09:35:33.524Z,4.38
2023-01-01T09:38:00.463Z,4.22
2023-01-01T09:40:49.174Z,7.68
2023-01-01T09:43:57.263Z,5.60
2023-01-01T09:46:31.488Z,5.20
2023-01-01T09:49:05.684Z,4.45
2023-01-01T09:51:41.121Z,4.03
2023-01-01T09:54:33.476Z,2.17
2023-01-01T09:57:02.534Z,4.93
2023-01-01T09:59:30.061Z,8.07
2023-01-01T10:02:06.754Z,8.77
2023-01-01T10:04:58.510Z,9.07
2023-01-01T10:07:43.260Z,6.15
2023-01-01T10:10:31.173Z,2.97
2023-01-01T10:13:15.425Z,5.18
2023-01-01T10:15:55.122Z,6.00
2023-01-01T10:18:26.548Z,8.50
2023-01-01T10:21:05.332Z,4.22
2023-01-01T10:23:41.548Z,3.30
2023-01-01T10:26:15.217Z,2.03
2023-01-01T10:29:13.612Z,5.20
2023-01-01T10:31:45.507Z,4.65
2023-01-01T10:34:34.388Z,3.25
2023-01-01T10:37:03.582Z,9.52
2023-01-01T10:39:30.625Z,4.88
2023-01-01T10:41:58.795Z,2.35
2023-01-01T10:44:34.439Z,4.35
2023-01-01T10:47:22.743Z,4.63
2023-01-01T10:49:58.769Z,3.67
2023-01-01T10:52:31.585Z,5.15
2023-01-01T10:55:00.124Z,2.75
2023-01-01T10:57:27.119Z,5.63
2023-01-01T10:59:54.862Z,4.35
2023-01-01T11:02:27.541Z,11.30
2023-01-01T11:05:22.277Z,6.07
2023-01-01T11:07:50.051Z,6.38
2023-01-01T11:10:23.116Z,3.33
2023-01-01T11:13:06.999Z,4.43
2023-01-01T11:15:41.826Z,3.67
2023-01-01T11:18:20.505Z,3.85
2023-01-01T11:20:58.691Z,3.13
2023-01-01T11:23:38.306Z,6.00
2023-01-01T11:26:17.032Z,7.38
2023-01-01T11:29:18.795Z,8.15
2023-01-01T11:31:47.591Z,7.65
2023-01-01T11:34:33.075Z,3.55
2023-01-01T11:37:14.224Z,3.85
2023-01-01T11:39:47.661Z,4.22
2023-01-01T11:42:19.786Z,7.70
2023-01-01T11:45:12.615Z,5.30
2023-01-01T11:47:41.618Z,12.73
2023-01-01T11:50:14.302Z,18.58
2023-01-01T11:52:42.773Z,21.98
2023-01-01T11:55:37.793Z,12.07
2023-01-01T11:58:21.409Z,13.50
2023-01-01T12:00:51.469Z,8.00
2023-01-01T12:03:34.138Z,7.30
2023-01-01T12:06:06.534Z,9.45
2023-01-01T12:08:47.292Z,7.07
2023-01-01T12:11:38.040Z,11.45
2023-01-01T12:14:34.786Z,10.30
2023-01-01T12:17:17.090Z,10.70
2023-01-01T12:20:05.809Z,9.40
2023-01-01T12:22:33.069Z,13.80
2023-01-01T12:25:00.937Z,8.95
2023-01-01T12:27:39.576Z,8.23
2023-01-01T12:30:12.895Z,15.55
2023-01-01T12:33:08.120Z,10.32
2023-01-01T12:35:50.761Z,9.15
2023-01-01T12:38:33.611Z,7.35
2023-01-01T12:41:13.721Z,13.32
2023-01-01T12:43:44.401Z,6.88
2023-01-01T12:46:37.469Z,5.05
2023-01-01T12:49:36.180Z,7.72
2023-01-01T12:52:20.056Z,10.45
2023-01-01T12:55:07.177Z,6.78
2023-01-01T12:57:56.583Z,11.32
2023-01-01T13:00:23.867Z,9.90
2023-01-01T13:03:37.788Z,8.50
2023-01-01T13:06:06.524Z,11.43
2023-01-01T13:08:35.480Z,6.50
2023-01-01T13:11:04.647Z,7.05
2023-01-01T13:13:31.608Z,11.60
2023-01-01T13:15:58.914Z,8.45
2023-01-01T13:18:35.414Z,6.47
2023-01-01T13:21:17.693Z,8.88
2023-01-01T13:23:45.663Z,9.65
2023-01-01T13:26:21.658Z,8.32
2023-01-01T13:28:57.512Z,9.82
2023-01-01T13:31:44.833Z,10.68
2023-01-01T13:34:30.636Z,8.88
2023-01-01T13:37:23.688Z,8.30
2023-01-01T13:40:04.678Z,9.35
2023-01-01T13:42:57.793Z,8.73
2023-01-01T13:49:12.961Z,6.80
2023-01-01T13:52:08.452Z,6.70
2023-01-01T13:54:53.904Z,10.40
2023-01-01T13:57:23.587Z,9.27
2023-01-01T14:00:02.065Z,13.35
2023-01-01T14:02:36.241Z,19.67
2023-01-01T14:05:28.152Z,14.02
2023-01-01T14:07:55.752Z,14.75
2023-01-01T14:10:33.047Z,9.80
2023-01-01T14:13:05.862Z,12.88
2023-01-01T14:15:54.722Z,15.25
2023-01-01T14:18:28.300Z,21.70
2023-01-01T14:21:12.486Z,12.82
2023-01-01T14:23:42.584Z,7.28
2023-01-01T14:26:13.661Z,16.73
2023-01-01T14:28:41.248Z,8.25
2023-01-01T14:31:14.947Z,8.05
2023-01-01T14:33:42.035Z,10.88
2023-01-01T14:36:22.091Z,14.88
2023-01-01T14:38:51.890Z,12.02
2023-01-01T14:41:39.682Z,11.13
2023-01-01T14:44:13.364Z,12.10
2023-01-01T14:46:42.371Z,11.00
2023-01-01T14:49:12.259Z,9.77
2023-01-01T14:51:46.172Z,6.35
2023-01-01T14:54:20.976Z,6.47
2023-01-01T14:56:49.949Z,9.40
2023-01-01T14:59:30.748Z,8.40
2023-01-01T15:02:12.815Z,8.68
2023-01-01T15:04:40.902Z,6.68
2023-01-01T15:07:21.028Z,6.65
2023-01-01T15:09:48.390Z,9.55
2023-01-01T15:12:18.087Z,6.90
2023-01-01T15:14:50.774Z,8.18
2023-01-01T15:17:20.050Z,6.40
2023-01-01T15:20:00.566Z,10.07
2023-01-01T15:22:33.631Z,6.28
2023-01-01T15:25:01.397Z,4.80
2023-01-01T15:27:34.305Z,4.97
2023-01-01T15:30:08.388Z,6.68
2023-01-01T15:32:39.306Z,5.97
2023-01-01T15:35:24.899Z,6.57
2023-01-01T15:38:01.021Z,4.70
2023-01-01T15:40:27.942Z,5.38
2023-01-01T15:42:54.909Z,5.68
2023-01-01T15:45:26.025Z,6.30
2023-01-01T15:47:56.292Z,5.30
2023-01-01T15:50:28.222Z,7.38
2023-01-01T15:52:58.452Z,7.57
2023-01-01T15:55:29.069Z,5.00
2023-01-01T15:57:57.067Z,4.65
2023-01-01T16:00:29.694Z,6.65
2023-01-01T16:03:02.048Z,4.60
2023-01-01T16:05:29.362Z,15.30
2023-01-01T16:08:05.944Z,7.03
2023-01-01T16:10:32.916Z,10.48
2023-01-01T16:12:59.971Z,6.07
2023-01-01T16:15:27.145Z,5.43
2023-01-01T16:17:55.179Z,7.75
2023-01-01T16:20:22.563Z,13.98
2023-01-01T16:22:50.922Z,7.22
2023-01-01T16:25:20.099Z,5.47
2023-01-01T16:27:47.619Z,6.10
2023-01-01T16:30:15.389Z,4.35
2023-01-01T16:32:42.533Z,7.72
2023-01-01T16:35:13.404Z,4.95
2023-01-01T16:37:40.464Z,3.67
2023-01-01T16:40:08.353Z,5.72
2023-01-01T16:42:35.564Z,6.32
2023-01-01T16:45:02.773Z,6.40
2023-01-01T16:47:29.697Z,13.07
2023-01-01T16:49:56.672Z,8.32
2023-01-01T16:52:23.599Z,10.70
2023-01-01T16:54:50.889Z,11.48
2023-01-01T16:57:17.827Z,14.77
2023-01-01T16:59:44.960Z,10.13
2023-01-01T17:02:12.687Z,6.63
2023-01-01T17:04:40.493Z,7.70
2023-01-01T17:07:07.515Z,4.53
2023-01-01T17:09:34.441Z,8.98
2023-01-01T17:12:01.496Z,13.00
2023-01-01T17:14:29.179Z,8.63
2023-01-01T17:16:56.482Z,5.97
2023-01-01T17:19:23.577Z,7.45
2023-01-01T17:21:50.767Z,6.68
2023-01-01T17:24:19.668Z,7.65
2023-01-01T17:26:50.185Z,5.85
2023-01-01T17:29:17.125Z,5.50
2023-01-01T17:31:44.400Z,5.50
2023-01-01T17:34:15.056Z,4.55
2023-01-01T17:36:43.988Z,5.30
2023-01-01T17:39:16.828Z,6.80
2023-01-01T17:41:44.699Z,4.88
2023-01-01T17:44:12.008Z,8.77
2023-01-01T17:46:39.383Z,7.13
2023-01-01T17:49:07.606Z,6.10
2023-01-01T17:51:34.668Z,8.57
2023-01-01T17:54:02.891Z,6.13
2023-01-01T17:56:30.170Z,5.38
2023-01-01T17:58:58.219Z,5.90
2023-01-01T18:01:33.062Z,6.55
2023-01-01T18:04:02.691Z,5.50
2023-01-01T18:06:35.068Z,8.55
2023-01-01T18:09:07.961Z,4.65
2023-01-01T18:11:35.127Z,10.32
2023-01-01T18:14:04.104Z,5.43
2023-01-01T18:16:33.307Z,6.63
2023-01-01T18:19:03.966Z,6.90
2023-01-01T18:21:32.307Z,7.68
2023-01-01T18:23:59.798Z,9.35
2023-01-01T18:26:30.414Z,10.45
2023-01-01T18:29:02.305Z,5.05
2023-01-01T18:31:32.154Z,6.43
2023-01-01T18:34:01.538Z,7.10
2023-01-01T18:36:30.394Z,7.20
2023-01-01T18:39:27.546Z,5.82
2023-01-01T18:42:19.346Z,5.20
2023-01-01T18:44:46.669Z,6.70
2023-01-01T18:47:20.878Z,5.05
2023-01-01T18:50:14.262Z,6.60
2023-01-01T18:52:41.152Z,5.70
2023-01-01T18:55:14.426Z,10.05
2023-01-01T18:57:41.522Z,5.05
2023-01-01T19:00:17.389Z,7.32
2023-01-01T19:03:02.247Z,4.15
2023-01-01T19:05:34.821Z,6.10
2023-01-01T19:08:06.291Z,7.45
2023-01-01T19:10:56.892Z,14.27
2023-01-01T19:13:35.818Z,11.90
2023-01-01T19:16:12.676Z,11.63
2023-01-01T19:18:45.145Z,7.05
2023-01-01T19:21:12.151Z,8.18
2023-01-01T19:23:57.686Z,10.98
2023-01-01T19:26:27.948Z,10.88
2023-01-01T19:28:56.614Z,34.78
2023-01-01T19:31:24.142Z,25.30
2023-01-01T19:33:51.265Z,20.05
2023-01-01T19:36:19.735Z,17.58
2023-01-01T19:38:46.668Z,11.68
2023-01-01T19:41:13.781Z,18.48
2023-01-01T19:43:41.264Z,18.55
2023-01-01T19:46:08.218Z,15.98
2023-01-01T19:48:35.184Z,12.85
2023-01-01T19:51:02.252Z,14.15
2023-01-01T19:53:29.256Z,14.57
2023-01-01T19:55:56.424Z,17.02
2023-01-01T19:58:23.539Z,9.63
2023-01-01T20:00:51.678Z,10.45
2023-01-01T20:03:52.019Z,14.70
2023-01-01T20:06:07.312Z,13.90
2023-01-01T20:08:34.540Z,7.57
2023-01-01T20:11:01.525Z,13.77
2023-01-01T20:13:28.583Z,11.25
2023-01-01T20:15:55.748Z,9.38
2023-01-01T20:18:22.718Z,10.20
2023-01-01T20:21:07.965Z,8.30
2023-01-01T20:23:35.116Z,8.25
2023-01-01T20:26:04.088Z,7.63
2023-01-01T20:28:49.740Z,8.70
2023-01-01T20:31:18.998Z,8.25
2023-01-01T20:33:46.126Z,9.27
2023-01-01T20:36:51.546Z,3.80
2023-01-01T20:39:18.613Z,5.68
2023-01-01T20:41:45.525Z,8.48
2023-01-01T20:44:12.529Z,8.57
2023-01-01T20:46:40.035Z,8.80
2023-01-01T20:49:06.996Z,7.00
2023-01-01T20:51:34.536Z,5.20
2023-01-01T20:54:01.521Z,10.25
2023-01-01T20:56:30.209Z,9.40
2023-01-01T20:59:00.432Z,6.05
2023-01-01T21:01:32.184Z,9.02
2023-01-01T21:03:59.195Z,5.82
2023-01-01T21:06:26.258Z,3.05
2023-01-01T21:08:53.280Z,5.95
2023-01-01T21:11:20.441Z,5.80
2023-01-01T21:13:48.050Z,7.70
2023-01-01T21:16:19.273Z,9.43
2023-01-01T21:18:47.999Z,9.20
2023-01-01T21:21:23.768Z,3.40
2023-01-01T21:23:52.681Z,8.48
2023-01-01T21:26:26.534Z,9.85
2023-01-01T21:28:54.405Z,8.98
2023-01-01T21:31:22.562Z,7.22
2023-01-01T21:33:49.684Z,6.88
2023-01-01T21:36:22.859Z,4.68
2023-01-01T21:38:51.952Z,5.22
2023-01-01T21:41:25.261Z,7.40
2023-01-01T21:43:58.272Z,10.73
2023-01-01T21:46:28.516Z,6.55
2023-01-01T21:48:58.289Z,6.18
2023-01-01T21:51:28.239Z,5.43
2023-01-01T21:54:12.084Z,4.97
2023-01-01T21:56:41.059Z,9.10
2023-01-01T21:59:47.487Z,4.90
2023-01-01T22:02:14.600Z,8.40
2023-01-01T22:04:48.382Z,4.53
2023-01-01T22:10:23.982Z,4.28
2023-01-01T22:12:57.123Z,5.18
2023-01-01T22:15:36.653Z,6.38
2023-01-01T22:18:12.757Z,7.97
2023-01-01T22:20:42.227Z,4.80
2023-01-01T22:23:24.695Z,5.18
2023-01-01T22:25:52.879Z,4.65
2023-01-01T22:28:25.494Z,3.40
2023-01-01T22:31:02.537Z,6.53
2023-01-01T22:33:44.213Z,5.07
2023-01-01T22:36:26.497Z,3.53
2023-01-01T22:38:57.573Z,6.07
2023-01-01T22:41:24.855Z,5.72
2023-01-01T22:43:55.808Z,2.50
2023-01-01T22:46:26.225Z,5.65
2023-01-01T22:48:58.286Z,3.45
2023-01-01T22:51:28.760Z,5.78
2023-01-01T22:53:55.689Z,4.07
2023-01-01T22:56:22.682Z,6.20
2023-01-01T22:58:56.529Z,6.88
2023-01-01T23:01:24.079Z,7.50
2023-01-01T23:03:51.385Z,4.72
2023-01-01T23:06:19.203Z,7.68
2023-01-01T23:08:46.497Z,5.75
2023-01-01T23:11:13.649Z,5.70
2023-01-01T23:13:59.286Z,6.38
2023-01-01T23:16:26.405Z,4.78
2023-01-01T23:18:53.442Z,4.60
2023-01-01T23:21:26.796Z,4.13
2023-01-01T23:23:56.731Z,5.40
2023-01-01T23:26:24.982Z,5.85
2023-01-01T23:28:53.285Z,3.40
2023-01-01T23:31:25.212Z,6.72
2023-01-01T23:33:53.814Z,10.82
2023-01-01T23:36:21.035Z,18.90
2023-01-01T23:38:48.085Z,24.30
2023-01-01T23:41:15.088Z,24.92
2023-01-01T23:43:43.946Z,23.85
2023-01-01T23:46:13.160Z,17.92
2023-01-01T23:48:44.246Z,19.35
2023-01-01T23:51:12.292Z,18.38
2023-01-01T23:53:39.356Z,13.57
2023-01-01T23:56:06.610Z,19.58
2023-01-01T23:58:33.584Z,17.70
